createdAt,value
2019-05-10T00:02:01.320Z,69.32
2019-05-10T00:04:49.333Z,66.55
2019-05-10T00:07:37.333Z,70.05
2019-05-10T00:10:07.001Z,65.97
2019-05-10T00:12:55.257Z,63.35
2019-05-10T00:15:27.486Z,63.90
2019-05-10T00:17:59.441Z,66.15
2019-05-10T00:20:29.928Z,63.78
2019-05-10T00:23:00.381Z,66.28
2019-05-10T00:25:30.791Z,68.17
2019-05-10T00:28:01.213Z,63.55
2019-05-10T00:30:31.592Z,68.52
2019-05-10T00:33:02.000Z,57.53
2019-05-10T00:35:32.379Z,60.15
2019-05-10T00:38:02.789Z,57.48
2019-05-10T00:40:33.265Z,59.10
2019-05-10T00:43:05.194Z,56.05
2019-05-10T00:45:35.622Z,59.15
2019-05-10T00:48:06.072Z,54.90
2019-05-10T00:50:37.923Z,51.23
2019-05-10T00:53:08.302Z,52.73
2019-05-10T00:55:38.719Z,46.00
2019-05-10T00:58:09.094Z,48.52
2019-05-10T01:00:39.504Z,44.65
2019-05-10T01:03:09.956Z,42.40
2019-05-10T01:05:40.367Z,46.42
2019-05-10T01:08:10.748Z,39.58
2019-05-10T01:10:41.149Z,33.30
2019-05-10T01:13:11.591Z,30.77
2019-05-10T01:15:41.977Z,34.58
2019-05-10T01:18:12.391Z,32.93
2019-05-10T01:20:42.844Z,26.00
2019-05-10T01:23:13.221Z,21.48
2019-05-10T01:25:43.633Z,27.07
2019-05-10T01:28:14.008Z,11.10
2019-05-10T01:30:44.396Z,13.88
2019-05-10T01:33:14.808Z,10.05
2019-05-10T01:35:45.351Z,8.63
2019-05-10T01:38:15.712Z,11.03
2019-05-10T01:40:47.664Z,7.67
2019-05-10T01:43:18.034Z,6.45
2019-05-10T01:45:48.382Z,5.78
2019-05-10T01:48:20.261Z,7.45
2019-05-10T01:50:50.621Z,4.72
2019-05-10T01:53:20.986Z,8.68
2019-05-10T01:55:52.908Z,4.40
2019-05-10T01:58:23.672Z,9.48
2019-05-10T02:00:54.032Z,19.30
2019-05-10T02:03:24.463Z,25.68
2019-05-10T02:05:54.864Z,28.83
2019-05-10T02:08:25.244Z,41.25
2019-05-10T02:10:56.501Z,43.30
2019-05-10T02:13:26.887Z,45.45
2019-05-10T02:15:57.307Z,51.63
2019-05-10T02:18:27.705Z,56.15
2019-05-10T02:20:59.575Z,54.45
2019-05-10T02:23:29.974Z,56.30
2019-05-10T02:26:09.351Z,56.30
2019-05-10T02:28:34.049Z,57.03
2019-05-10T02:31:04.538Z,54.23
2019-05-10T02:33:34.927Z,54.40
2019-05-10T02:36:05.572Z,51.37
2019-05-10T02:38:36.005Z,51.58
2019-05-10T02:41:06.411Z,47.80
2019-05-10T02:43:36.793Z,48.80
2019-05-10T02:46:07.367Z,49.50
2019-05-10T02:48:37.771Z,47.00
2019-05-10T02:51:08.294Z,47.20
2019-05-10T02:53:38.751Z,47.27
2019-05-10T02:56:29.170Z,47.90
2019-05-10T02:58:43.948Z,46.70
2019-05-10T03:01:15.440Z,47.60
2019-05-10T03:03:47.603Z,49.20
2019-05-10T03:06:19.503Z,45.23
2019-05-10T03:08:51.798Z,43.45
2019-05-10T03:11:22.281Z,47.78
2019-05-10T03:13:52.777Z,46.85
2019-05-10T03:16:23.593Z,47.45
2019-05-10T03:18:54.323Z,52.90
2019-05-10T03:21:25.677Z,46.30
2019-05-10T03:23:56.129Z,38.38
2019-05-10T03:26:28.025Z,38.35
2019-05-10T03:28:58.488Z,41.83
2019-05-10T03:31:30.491Z,39.18
2019-05-10T03:34:00.964Z,36.35
2019-05-10T03:36:31.776Z,37.40
2019-05-10T03:39:02.234Z,39.95
2019-05-10T03:41:32.871Z,34.85
2019-05-10T03:44:03.464Z,37.80
2019-05-10T03:46:34.447Z,35.65
2019-05-10T03:49:06.376Z,37.53
2019-05-10T03:51:36.931Z,43.40
2019-05-10T03:54:08.776Z,37.98
2019-05-10T03:56:39.293Z,41.35
2019-05-10T03:59:09.684Z,40.95
2019-05-10T04:01:40.290Z,41.02
2019-05-10T04:04:10.810Z,39.55
2019-05-10T04:06:42.950Z,42.55
2019-05-10T04:09:14.800Z,40.33
2019-05-10T04:11:45.261Z,51.18
2019-05-10T04:14:15.714Z,49.23
2019-05-10T04:16:46.190Z,41.77
2019-05-10T04:19:16.563Z,46.73
2019-05-10T04:21:47.008Z,40.60
2019-05-10T04:24:17.376Z,45.20
2019-05-10T04:26:47.774Z,44.33
2019-05-10T04:29:18.255Z,38.65
2019-05-10T04:31:51.684Z,36.23
2019-05-10T04:34:22.159Z,43.35
2019-05-10T04:36:54.017Z,42.38
2019-05-10T04:39:24.518Z,20.25
2019-05-10T04:41:54.962Z,10.03
2019-05-10T04:44:25.380Z,6.22
2019-05-10T04:46:55.755Z,5.55
2019-05-10T04:49:26.235Z,3.70
2019-05-10T04:51:56.671Z,5.90
2019-05-10T04:54:27.086Z,2.77
2019-05-10T04:57:00.112Z,14.40
2019-05-10T04:59:29.594Z,1.82
2019-05-10T05:02:00.920Z,5.95
2019-05-10T05:04:32.793Z,9.18
2019-05-10T05:07:03.190Z,3.92
2019-05-10T05:09:33.597Z,6.00
2019-05-10T05:12:04.072Z,14.68
2019-05-10T05:14:34.430Z,5.03
2019-05-10T05:17:04.983Z,54.73
2019-05-10T05:19:35.380Z,7.05
2019-05-10T05:22:05.863Z,6.05
2019-05-10T05:24:36.232Z,25.32
2019-05-10T05:27:06.804Z,2.75
2019-05-10T05:29:38.940Z,12.68
2019-05-10T05:32:13.349Z,2.62
2019-05-10T05:34:42.941Z,2.60
2019-05-10T05:37:13.325Z,4.20
2019-05-10T05:39:43.710Z,5.92
2019-05-10T05:42:14.174Z,8.20
2019-05-10T05:44:44.571Z,4.78
2019-05-10T05:47:15.249Z,5.53
2019-05-10T05:49:45.622Z,3.72
2019-05-10T05:52:17.057Z,2.05
2019-05-10T05:54:47.449Z,3.55
2019-05-10T05:57:22.131Z,21.52
2019-05-10T05:59:50.001Z,18.02
2019-05-10T06:02:20.404Z,3.55
2019-05-10T06:04:50.767Z,3.08
2019-05-10T06:07:21.250Z,9.85
2019-05-10T06:09:51.652Z,6.85
2019-05-10T06:12:23.596Z,3.25
2019-05-10T06:14:53.969Z,11.60
2019-05-10T06:17:29.564Z,2.50
2019-05-10T06:20:00.950Z,6.70
2019-05-10T06:22:28.544Z,8.35
2019-05-10T06:25:00.384Z,3.35
2019-05-10T06:27:35.187Z,24.35
2019-05-10T06:30:02.885Z,11.15
2019-05-10T06:32:33.312Z,59.13
2019-05-10T06:35:04.492Z,10.60
2019-05-10T06:37:36.370Z,9.40
2019-05-10T06:40:07.251Z,2.75
2019-05-10T06:42:38.483Z,3.22
2019-05-10T06:45:14.765Z,4.05
2019-05-10T06:47:47.895Z,1.57
2019-05-10T06:50:17.286Z,15.50
2019-05-10T06:52:47.692Z,2.05
2019-05-10T06:55:18.065Z,16.93
2019-05-10T06:57:50.562Z,1.67
2019-05-10T07:00:20.640Z,14.65
2019-05-10T07:02:51.314Z,1.77
2019-05-10T07:05:23.342Z,60.67
2019-05-10T07:07:53.828Z,37.93
2019-05-10T07:10:25.434Z,5.47
2019-05-10T07:12:56.935Z,48.35
2019-05-10T07:15:28.252Z,6.92
2019-05-10T07:17:58.727Z,7.78
2019-05-10T07:20:29.674Z,42.95
2019-05-10T07:23:06.099Z,9.53
2019-05-10T07:25:37.600Z,23.83
2019-05-10T07:28:09.401Z,26.65
2019-05-10T07:30:41.321Z,10.78
2019-05-10T07:33:10.356Z,4.10
2019-05-10T07:35:40.805Z,5.55
2019-05-10T07:38:11.209Z,3.90
2019-05-10T07:40:41.692Z,44.42
2019-05-10T07:43:12.163Z,5.85
2019-05-10T07:45:42.537Z,3.00
2019-05-10T07:48:12.937Z,56.90
2019-05-10T07:50:49.803Z,5.25
2019-05-10T07:53:16.365Z,12.65
2019-05-10T07:55:47.597Z,5.62
2019-05-10T07:58:18.131Z,3.25
2019-05-10T08:00:48.489Z,4.05
2019-05-10T08:03:23.553Z,1.30
2019-05-10T08:05:55.033Z,0.90
2019-05-10T08:08:23.116Z,10.70
2019-05-10T08:10:53.569Z,6.80
2019-05-10T08:13:25.292Z,6.12
2019-05-10T08:15:56.569Z,4.70
2019-05-10T08:18:29.158Z,1.75
2019-05-10T08:21:02.412Z,19.77
2019-05-10T08:23:31.182Z,11.65
2019-05-10T08:26:04.535Z,11.70
2019-05-10T08:28:37.368Z,2.70
2019-05-10T08:31:05.728Z,14.95
2019-05-10T08:33:36.217Z,16.10
2019-05-10T08:36:06.619Z,4.92
2019-05-10T08:38:39.684Z,7.15
2019-05-10T08:41:14.863Z,4.55
2019-05-10T08:43:43.192Z,4.97
2019-05-10T08:46:19.410Z,18.77
2019-05-10T08:48:53.104Z,6.95
2019-05-10T08:51:22.606Z,4.15
2019-05-10T08:53:57.841Z,1.32
2019-05-10T08:56:24.373Z,1.67
2019-05-10T08:58:54.899Z,10.95
2019-05-10T09:01:30.258Z,4.87
2019-05-10T09:04:00.849Z,6.05
2019-05-10T09:06:32.767Z,6.22
2019-05-10T09:09:08.141Z,10.95
2019-05-10T09:11:36.696Z,3.27
2019-05-10T09:14:12.251Z,24.40
2019-05-10T09:16:45.673Z,26.85
2019-05-10T09:19:13.007Z,9.90
2019-05-10T09:21:49.943Z,7.87
2019-05-10T09:24:15.597Z,3.00
2019-05-10T09:26:46.913Z,8.93
2019-05-10T09:29:21.779Z,1.10
2019-05-10T09:31:53.429Z,6.03
2019-05-10T09:34:27.098Z,1.30
2019-05-10T09:36:55.861Z,2.83
2019-05-10T09:39:26.325Z,2.12
2019-05-10T09:41:58.232Z,4.50
2019-05-10T09:44:28.639Z,7.35
2019-05-10T09:46:59.009Z,3.35
2019-05-10T09:49:29.443Z,9.10
2019-05-10T09:52:04.694Z,1.67
2019-05-10T09:54:33.560Z,2.67
2019-05-10T09:57:04.153Z,8.85
2019-05-10T09:59:36.767Z,1.42
2019-05-10T10:02:14.508Z,24.12
2019-05-10T10:04:38.922Z,4.47
2019-05-10T10:07:09.299Z,1.85
2019-05-10T10:09:44.732Z,0.93
2019-05-10T10:12:11.801Z,2.52
2019-05-10T10:14:43.448Z,2.67
2019-05-10T10:17:17.211Z,2.12
2019-05-10T10:19:48.022Z,2.75
2019-05-10T10:22:19.859Z,1.92
2019-05-10T10:24:55.207Z,4.08
2019-05-10T10:27:26.071Z,7.65
2019-05-10T10:29:54.351Z,6.55
2019-05-10T10:32:33.129Z,27.52
2019-05-10T10:34:57.758Z,8.53
2019-05-10T10:37:31.212Z,3.62
2019-05-10T10:40:05.180Z,19.55
2019-05-10T10:42:32.590Z,15.70
2019-05-10T10:45:03.958Z,3.90
2019-05-10T10:47:34.686Z,1.15
2019-05-10T10:50:09.065Z,7.17
2019-05-10T10:52:40.210Z,16.65
2019-05-10T10:55:11.876Z,1.57
2019-05-10T10:57:42.981Z,1.82
2019-05-10T11:00:13.407Z,4.28
2019-05-10T11:02:46.909Z,29.25
2019-05-10T11:05:15.897Z,3.27
2019-05-10T11:07:47.797Z,2.72
2019-05-10T11:10:23.021Z,1.25
2019-05-10T11:12:56.264Z,2.25
2019-05-10T11:15:29.020Z,1.10
2019-05-10T11:18:00.455Z,2.30
2019-05-10T11:20:31.766Z,1.70
2019-05-10T11:23:02.404Z,1.10
2019-05-10T11:25:32.950Z,5.03
2019-05-10T11:28:03.387Z,1.47
2019-05-10T11:30:33.805Z,1.40
2019-05-10T11:33:04.194Z,1.85
2019-05-10T11:35:34.834Z,2.33
2019-05-10T11:38:11.762Z,1.92
2019-05-10T11:40:41.701Z,2.60
2019-05-10T11:43:11.198Z,1.75
2019-05-10T11:45:44.124Z,32.60
2019-05-10T11:48:13.700Z,3.20
2019-05-10T11:50:44.218Z,1.47
2019-05-10T11:53:17.415Z,2.65
2019-05-10T11:55:46.693Z,1.90
2019-05-10T11:58:17.238Z,2.25
2019-05-10T12:00:53.026Z,2.45
2019-05-10T12:03:23.464Z,2.72
2019-05-10T12:06:04.599Z,3.77
2019-05-10T12:08:24.365Z,5.45
2019-05-10T12:13:27.161Z,6.45
2019-05-10T12:15:57.603Z,9.38
2019-05-10T12:18:27.962Z,2.12
2019-05-10T12:21:08.978Z,1.35
2019-05-10T12:23:31.674Z,1.35
2019-05-10T12:26:27.549Z,3.90
2019-05-10T12:27:12.752Z,1.10
2019-05-10T12:28:35.826Z,4.78
2019-05-10T12:31:07.673Z,3.35
2019-05-10T12:33:42.030Z,3.33
2019-05-10T12:36:22.235Z,5.45
2019-05-10T12:38:42.739Z,0.70
2019-05-10T12:41:13.179Z,0.78
2019-05-10T12:43:43.811Z,5.15
2019-05-10T12:46:14.298Z,2.47
2019-05-10T12:48:44.653Z,2.05
2019-05-10T12:51:16.779Z,1.17
2019-05-10T12:53:49.849Z,2.08
2019-05-10T12:56:20.974Z,1.98
2019-05-10T12:58:57.591Z,4.33
2019-05-10T13:01:25.420Z,1.85
2019-05-10T13:03:56.999Z,0.80
2019-05-10T13:06:27.516Z,1.32
2019-05-10T13:08:57.970Z,1.65
2019-05-10T13:11:29.916Z,3.85
2019-05-10T13:14:00.995Z,2.25
2019-05-10T13:16:32.398Z,1.72
2019-05-10T13:19:04.251Z,0.65
2019-05-10T13:21:34.744Z,1.30
2019-05-10T13:24:05.262Z,1.20
2019-05-10T13:26:35.652Z,0.90
2019-05-10T13:29:07.952Z,2.22
2019-05-10T13:31:42.643Z,0.82
2019-05-10T13:34:10.853Z,1.70
2019-05-10T13:36:41.256Z,1.25
2019-05-10T13:39:11.672Z,1.12
2019-05-10T13:41:42.167Z,0.82
2019-05-10T13:44:12.609Z,1.10
2019-05-10T13:46:44.602Z,1.65
2019-05-10T13:49:14.967Z,1.67
2019-05-10T13:51:45.474Z,0.70
2019-05-10T13:54:15.938Z,0.70
2019-05-10T13:56:52.284Z,1.15
2019-05-10T13:59:18.453Z,2.47
2019-05-10T14:01:49.410Z,9.48
2019-05-10T14:04:23.145Z,8.35
2019-05-10T14:06:53.044Z,0.72
2019-05-10T14:09:23.479Z,1.25
2019-05-10T14:11:53.932Z,1.82
2019-05-10T14:14:26.596Z,16.07
2019-05-10T14:16:56.415Z,0.93
2019-05-10T14:19:26.877Z,0.62
2019-05-10T14:21:57.337Z,0.70
2019-05-10T14:24:27.844Z,3.60
2019-05-10T14:26:59.382Z,91.82
2019-05-10T14:29:34.386Z,60.45
2019-05-10T14:32:03.566Z,12.50
2019-05-10T14:34:37.859Z,1.32
2019-05-10T14:37:06.161Z,3.40
2019-05-10T14:39:36.571Z,2.17
2019-05-10T14:42:09.522Z,9.95
2019-05-10T14:44:40.062Z,4.95
2019-05-10T14:47:11.202Z,9.10
2019-05-10T14:49:46.196Z,2.08
2019-05-10T14:52:14.049Z,2.92
2019-05-10T14:54:52.924Z,13.98
2019-05-10T14:57:18.037Z,4.87
2019-05-10T14:59:48.478Z,2.15
2019-05-10T15:02:22.766Z,2.45
2019-05-10T15:04:50.974Z,3.15
2019-05-10T15:07:21.349Z,11.40
2019-05-10T15:09:54.221Z,2.42
2019-05-10T15:12:24.681Z,23.42
2019-05-10T15:14:55.388Z,1.22
2019-05-10T15:17:29.786Z,19.55
2019-05-10T15:20:00.033Z,6.03
2019-05-10T15:22:29.970Z,17.98
2019-05-10T15:25:01.862Z,3.80
2019-05-10T15:27:32.300Z,10.18
2019-05-10T15:30:05.191Z,1.45
2019-05-10T15:32:34.865Z,8.18
2019-05-10T15:35:08.336Z,14.23
2019-05-10T15:37:41.022Z,1.85
2019-05-10T15:40:10.637Z,3.52
2019-05-10T15:42:41.129Z,5.85
2019-05-10T15:45:14.231Z,0.85
2019-05-10T15:47:51.300Z,6.37
2019-05-10T15:50:18.109Z,32.88
2019-05-10T15:52:48.797Z,38.00
2019-05-10T15:55:26.779Z,5.05
2019-05-10T15:57:57.464Z,6.37
2019-05-10T16:00:31.446Z,3.10
2019-05-10T16:02:59.335Z,14.65
2019-05-10T16:05:43.190Z,21.05
2019-05-10T16:08:03.507Z,2.47
2019-05-10T16:10:39.428Z,13.68
2019-05-10T16:13:06.981Z,1.98
2019-05-10T16:15:37.340Z,2.92
2019-05-10T16:18:07.736Z,3.92
2019-05-10T16:20:39.058Z,4.37
2019-05-10T16:23:11.230Z,3.10
2019-05-10T16:25:47.592Z,4.42
2019-05-10T16:28:15.595Z,2.08
2019-05-10T16:30:47.108Z,53.90
2019-05-10T16:33:19.238Z,4.33
2019-05-10T16:35:52.048Z,9.53
2019-05-10T16:38:22.716Z,1.00
2019-05-10T16:40:58.684Z,24.67
2019-05-10T16:43:26.763Z,3.10
2019-05-10T16:45:57.267Z,5.80
2019-05-10T16:48:28.709Z,4.17
2019-05-10T16:51:03.752Z,4.15
2019-05-10T16:53:31.579Z,2.15
2019-05-10T16:56:01.985Z,34.23
2019-05-10T16:58:33.211Z,5.12
2019-05-10T17:01:03.596Z,2.25
2019-05-10T17:03:33.994Z,5.12
2019-05-10T17:06:05.721Z,13.55
2019-05-10T17:08:38.608Z,6.00
2019-05-10T17:11:10.100Z,4.95
2019-05-10T17:13:43.078Z,1.42
2019-05-10T17:16:17.070Z,4.42
2019-05-10T17:18:49.864Z,4.03
2019-05-10T17:21:19.177Z,4.53
2019-05-10T17:23:49.603Z,5.12
2019-05-10T17:26:19.981Z,0.93
2019-05-10T17:28:52.790Z,1.45
2019-05-10T17:31:23.156Z,1.10
2019-05-10T17:33:55.158Z,1.52
2019-05-10T17:36:25.630Z,3.27
2019-05-10T17:38:56.876Z,1.32
2019-05-10T17:41:27.300Z,2.50
2019-05-10T17:43:57.721Z,2.55
2019-05-10T17:46:28.218Z,2.15
2019-05-10T17:48:58.625Z,15.03
2019-05-10T17:51:29.067Z,7.60
2019-05-10T17:54:01.660Z,4.22
2019-05-10T17:56:32.861Z,18.80
2019-05-10T17:59:05.682Z,8.43
2019-05-10T18:01:35.789Z,1.95
2019-05-10T18:04:06.219Z,4.17
2019-05-10T18:06:36.610Z,3.52
2019-05-10T18:09:07.305Z,4.58
2019-05-10T18:11:42.854Z,8.70
2019-05-10T18:14:12.520Z,7.75
2019-05-10T18:16:47.599Z,1.70
2019-05-10T18:19:19.035Z,14.53
2019-05-10T18:21:46.150Z,2.70
2019-05-10T18:24:16.537Z,8.15
2019-05-10T18:26:46.921Z,1.37
2019-05-10T18:29:18.930Z,1.37
2019-05-10T18:31:55.723Z,2.05
2019-05-10T18:34:26.440Z,1.25
2019-05-10T18:36:55.259Z,3.00
2019-05-10T18:39:25.724Z,1.25
2019-05-10T18:41:56.103Z,2.85
2019-05-10T18:44:26.582Z,2.17
2019-05-10T18:46:56.984Z,2.20
2019-05-10T18:49:27.447Z,6.03
2019-05-10T18:52:04.021Z,15.93
2019-05-10T18:54:31.532Z,3.67
2019-05-10T18:57:04.462Z,1.37
2019-05-10T18:59:33.993Z,3.67
2019-05-10T19:02:05.857Z,1.82
2019-05-10T19:04:36.313Z,2.17
2019-05-10T19:07:10.485Z,3.50
2019-05-10T19:09:38.794Z,2.15
2019-05-10T19:12:17.766Z,1.32
2019-05-10T19:14:42.842Z,3.15
2019-05-10T19:17:13.252Z,1.60
2019-05-10T19:19:43.627Z,7.72
2019-05-10T19:22:14.130Z,3.10
2019-05-10T19:24:44.509Z,1.85
2019-05-10T19:27:16.413Z,2.52
2019-05-10T19:29:47.989Z,4.92
2019-05-10T19:32:20.216Z,2.55
2019-05-10T19:34:57.080Z,5.87
2019-05-10T19:37:30.052Z,5.28
2019-05-10T19:39:56.261Z,2.85
2019-05-10T19:42:26.661Z,3.12
2019-05-10T19:44:58.507Z,4.35
2019-05-10T19:47:29.056Z,2.40
2019-05-10T19:49:59.445Z,1.90
2019-05-10T19:52:29.935Z,6.20
2019-05-10T19:55:00.374Z,2.27
2019-05-10T19:57:30.777Z,4.45
2019-05-10T20:00:01.146Z,4.62
2019-05-10T20:02:33.153Z,4.42
2019-05-10T20:05:04.908Z,2.15
2019-05-10T20:07:45.372Z,4.45
2019-05-10T20:10:08.391Z,7.97
2019-05-10T20:12:38.918Z,7.17
2019-05-10T20:15:10.377Z,3.62
2019-05-10T20:17:41.077Z,1.42
2019-05-10T20:20:11.771Z,1.95
2019-05-10T20:22:42.156Z,2.98
2019-05-10T20:25:12.739Z,3.50
2019-05-10T20:27:44.904Z,5.47
2019-05-10T20:30:15.501Z,1.90
2019-05-10T20:32:45.944Z,9.90
2019-05-10T20:35:16.325Z,5.80
2019-05-10T20:38:00.825Z,3.80
2019-05-10T20:40:18.967Z,1.52
2019-05-10T20:42:49.361Z,4.50
2019-05-10T20:45:19.747Z,2.42
2019-05-10T20:47:50.160Z,2.25
2019-05-10T20:50:20.637Z,9.48
2019-05-10T20:52:51.119Z,3.72
2019-05-10T20:55:21.521Z,5.08
2019-05-10T20:57:51.914Z,3.25
2019-05-10T21:00:24.221Z,4.60
2019-05-10T21:02:54.411Z,4.25
2019-05-10T21:05:24.793Z,5.33
2019-05-10T21:07:56.786Z,1.85
2019-05-10T21:10:27.157Z,19.98
2019-05-10T21:12:59.187Z,4.97
2019-05-10T21:15:31.185Z,3.92
2019-05-10T21:18:01.604Z,1.80
2019-05-10T21:20:32.065Z,3.58
2019-05-10T21:23:02.697Z,1.77
2019-05-10T21:25:33.165Z,3.87
2019-05-10T21:28:03.553Z,2.50
2019-05-10T21:30:33.964Z,3.20
2019-05-10T21:33:04.409Z,4.80
2019-05-10T21:35:34.806Z,2.52
2019-05-10T21:38:05.174Z,2.47
2019-05-10T21:40:35.549Z,8.40
2019-05-10T21:43:06.768Z,3.62
2019-05-10T21:45:37.137Z,3.60
2019-05-10T21:48:07.561Z,7.00
2019-05-10T21:50:38.020Z,2.17
2019-05-10T21:53:08.422Z,2.65
2019-05-10T21:55:38.829Z,2.35
2019-05-10T21:58:12.172Z,2.17
2019-05-10T22:00:44.112Z,2.35
2019-05-10T22:03:14.556Z,3.45
2019-05-10T22:05:44.933Z,2.42
2019-05-10T22:08:17.020Z,4.92
2019-05-10T22:10:48.851Z,3.40
2019-05-10T22:13:19.330Z,4.17
2019-05-10T22:15:51.168Z,7.70
2019-05-10T22:18:21.676Z,2.50
2019-05-10T22:20:52.117Z,3.45
2019-05-10T22:23:24.001Z,1.30
2019-05-10T22:25:54.373Z,1.22
2019-05-10T22:28:26.252Z,2.75
2019-05-10T22:30:56.624Z,1.40
2019-05-10T22:33:27.120Z,2.60
2019-05-10T22:35:57.566Z,2.92
2019-05-10T22:38:27.958Z,3.85
2019-05-10T22:40:58.340Z,2.50
2019-05-10T22:43:28.740Z,1.30
2019-05-10T22:45:59.164Z,3.00
2019-05-10T22:48:29.535Z,6.65
2019-05-10T22:51:00.027Z,2.72
2019-05-10T22:53:30.389Z,2.25
2019-05-10T22:56:00.814Z,2.58
2019-05-10T22:58:31.198Z,1.47
2019-05-10T23:01:01.677Z,1.37
2019-05-10T23:03:32.158Z,1.20
2019-05-10T23:06:02.628Z,1.67
2019-05-10T23:08:33.039Z,1.35
2019-05-10T23:11:03.499Z,3.45
2019-05-10T23:13:33.981Z,3.45
2019-05-10T23:16:04.374Z,2.52
2019-05-10T23:18:34.804Z,1.50
2019-05-10T23:21:08.204Z,2.25
2019-05-10T23:23:38.674Z,1.62
2019-05-10T23:26:09.044Z,2.50
2019-05-10T23:28:39.534Z,2.10
2019-05-10T23:31:09.897Z,1.90
2019-05-10T23:33:40.294Z,2.30
2019-05-10T23:36:10.676Z,3.22
2019-05-10T23:38:41.062Z,1.87
2019-05-10T23:41:11.423Z,1.32
2019-05-10T23:43:41.816Z,1.40
2019-05-10T23:46:12.182Z,1.92
2019-05-10T23:48:42.568Z,3.22
2019-05-10T23:51:13.035Z,3.22
2019-05-10T23:53:43.424Z,2.67
2019-05-10T23:56:13.836Z,1.85
2019-05-10T23:58:44.220Z,2.90
